createdAt,value
2023-03-11T00:00:09.987Z,71
2023-03-11T00:01:19.741Z,71
2023-03-11T00:02:26.960Z,71
2023-03-11T00:03:33.820Z,71
2023-03-11T00:04:41.028Z,70
2023-03-11T00:05:48.057Z,70
2023-03-11T00:06:55.033Z,69
2023-03-11T00:08:02.088Z,69
2023-03-11T00:09:09.839Z,69
2023-03-11T00:10:19.736Z,69
2023-03-11T00:11:31.882Z,68
2023-03-11T00:12:40.340Z,68
2023-03-11T00:13:49.243Z,68
2023-03-11T00:14:58.623Z,67
2023-03-11T00:16:05.631Z,67
2023-03-11T00:17:12.674Z,67
2023-03-11T00:18:19.627Z,67
2023-03-11T00:19:29.416Z,67
2023-03-11T00:20:36.423Z,67
2023-03-11T00:21:43.519Z,66
2023-03-11T00:22:50.530Z,66
2023-03-11T00:23:57.513Z,66
2023-03-11T00:25:04.552Z,66
2023-03-11T00:26:11.610Z,66
2023-03-11T00:27:18.537Z,66
2023-03-11T00:28:25.894Z,65
2023-03-11T00:29:32.957Z,65
2023-03-11T00:30:40.729Z,66
2023-03-11T00:31:47.663Z,65
2023-03-11T00:32:54.729Z,66
2023-03-11T00:34:02.911Z,65
2023-03-11T00:35:09.984Z,65
2023-03-11T00:36:17.037Z,66
2023-03-11T00:37:26.749Z,66
2023-03-11T00:38:36.247Z,66
2023-03-11T00:39:43.232Z,66
2023-03-11T00:40:51.187Z,66
2023-03-11T00:42:00.138Z,65
2023-03-11T00:43:07.504Z,65
2023-03-11T00:44:15.459Z,65
2023-03-11T00:45:22.518Z,66
2023-03-11T00:46:29.559Z,66
2023-03-11T00:47:39.459Z,66
2023-03-11T00:48:46.446Z,66
2023-03-11T00:49:53.498Z,66
2023-03-11T00:51:00.557Z,66
2023-03-11T00:52:07.691Z,67
2023-03-11T00:53:14.803Z,66
2023-03-11T00:54:21.889Z,66
2023-03-11T00:55:28.882Z,67
2023-03-11T00:56:35.946Z,67
2023-03-11T00:57:42.882Z,66
2023-03-11T00:58:49.878Z,66
2023-03-11T00:59:56.963Z,66
2023-03-11T01:01:06.953Z,65
2023-03-11T01:02:16.988Z,65
2023-03-11T01:03:23.994Z,65
2023-03-11T01:04:30.948Z,65
2023-03-11T01:05:38.176Z,65
2023-03-11T01:06:45.886Z,65
2023-03-11T01:07:52.198Z,65
2023-03-11T01:09:02.406Z,65
2023-03-11T01:10:09.458Z,65
2023-03-11T01:11:19.665Z,65
2023-03-11T01:12:27.532Z,65
2023-03-11T01:13:34.472Z,65
2023-03-11T01:14:41.606Z,65
2023-03-11T01:15:51.385Z,65
2023-03-11T01:16:58.424Z,65
2023-03-11T01:18:07.323Z,65
2023-03-11T01:19:14.962Z,65
2023-03-11T01:20:21.964Z,65
2023-03-11T01:21:29.065Z,66
2023-03-11T01:22:36.302Z,69
2023-03-11T01:23:43.406Z,69
2023-03-11T01:24:50.334Z,70
2023-03-11T01:25:57.382Z,70
2023-03-11T01:27:04.563Z,71
2023-03-11T01:28:14.611Z,72
2023-03-11T01:29:26.370Z,71
2023-03-11T01:30:33.391Z,72
2023-03-11T01:31:41.121Z,72
2023-03-11T01:32:48.289Z,73
2023-03-11T01:33:55.174Z,73
2023-03-11T01:35:02.223Z,73
2023-03-11T01:36:09.504Z,73
2023-03-11T01:37:16.564Z,72
2023-03-11T01:38:23.561Z,73
2023-03-11T01:39:30.579Z,73
2023-03-11T01:40:40.551Z,73
2023-03-11T01:41:47.560Z,72
2023-03-11T01:42:55.243Z,73
2023-03-11T01:44:04.937Z,73
2023-03-11T01:45:12.178Z,72
2023-03-11T01:46:29.404Z,72
2023-03-11T01:47:47.336Z,72
2023-03-11T01:48:54.320Z,73
2023-03-11T01:50:01.574Z,73
2023-03-11T01:51:09.198Z,73
2023-03-11T01:52:16.226Z,73
2023-03-11T01:53:23.260Z,73
2023-03-11T01:54:30.280Z,74
2023-03-11T01:55:38.379Z,74
2023-03-11T01:56:45.389Z,74
2023-03-11T01:57:52.371Z,74
2023-03-11T01:58:59.343Z,74
2023-03-11T02:00:06.609Z,74
2023-03-11T02:01:13.858Z,74
2023-03-11T02:02:23.630Z,75
2023-03-11T02:03:33.661Z,74
2023-03-11T02:04:40.844Z,74
2023-03-11T02:05:47.890Z,74
2023-03-11T02:06:54.921Z,73
2023-03-11T02:08:01.913Z,74
2023-03-11T02:09:09.041Z,73
2023-03-11T02:10:16.065Z,74
2023-03-11T02:11:23.167Z,74
2023-03-11T02:12:30.211Z,73
2023-03-11T02:13:37.250Z,72
2023-03-11T02:14:44.228Z,72
2023-03-11T02:15:51.300Z,70
2023-03-11T02:16:58.264Z,70
2023-03-11T02:18:06.521Z,69
2023-03-11T02:19:13.516Z,68
2023-03-11T02:20:23.295Z,68
2023-03-11T02:21:35.480Z,67
2023-03-11T02:22:42.475Z,67
2023-03-11T02:23:49.529Z,66
2023-03-11T02:25:06.608Z,66
2023-03-11T02:26:13.662Z,66
2023-03-11T02:27:20.698Z,66
2023-03-11T02:28:28.613Z,66
2023-03-11T02:29:37.901Z,65
2023-03-11T02:30:44.947Z,65
2023-03-11T02:31:52.138Z,65
2023-03-11T02:33:01.769Z,65
2023-03-11T02:34:11.422Z,65
2023-03-11T02:35:23.422Z,65
2023-03-11T02:36:30.452Z,64
2023-03-11T02:37:43.499Z,65
2023-03-11T02:38:50.546Z,65
2023-03-11T02:39:59.659Z,64
2023-03-11T02:41:14.812Z,65
2023-03-11T02:42:24.742Z,64
2023-03-11T02:43:31.791Z,64
2023-03-11T02:44:41.810Z,64
2023-03-11T02:45:48.850Z,64
2023-03-11T02:46:57.517Z,64
2023-03-11T02:48:04.466Z,64
2023-03-11T02:49:11.459Z,63
2023-03-11T02:50:18.548Z,63
2023-03-11T02:51:26.721Z,64
2023-03-11T02:52:34.688Z,64
2023-03-11T02:53:42.999Z,64
2023-03-11T02:54:50.828Z,64
2023-03-11T02:55:57.872Z,65
2023-03-11T02:57:04.913Z,65
2023-03-11T02:58:12.019Z,64
2023-03-11T02:59:18.965Z,65
2023-03-11T03:00:25.959Z,65
2023-03-11T03:01:33.042Z,66
2023-03-11T03:02:41.841Z,66
2023-03-11T03:03:48.843Z,66
2023-03-11T03:04:56.310Z,66
2023-03-11T03:06:03.367Z,66
2023-03-11T03:07:10.287Z,66
2023-03-11T03:08:17.318Z,66
2023-03-11T03:09:24.262Z,66
2023-03-11T03:10:33.922Z,66
2023-03-11T03:11:42.799Z,66
2023-03-11T03:12:49.804Z,66
2023-03-11T03:13:56.863Z,67
2023-03-11T03:15:09.109Z,67
2023-03-11T03:16:16.278Z,67
2023-03-11T03:17:23.246Z,68
2023-03-11T03:18:30.346Z,69
2023-03-11T03:19:37.458Z,69
2023-03-11T03:20:45.382Z,70
2023-03-11T03:21:52.452Z,71
2023-03-11T03:22:59.397Z,72
2023-03-11T03:24:06.531Z,73
2023-03-11T03:25:15.478Z,73
2023-03-11T03:26:22.531Z,73
2023-03-11T03:27:31.186Z,72
2023-03-11T03:28:38.127Z,73
2023-03-11T03:29:45.295Z,74
2023-03-11T03:30:53.351Z,75
2023-03-11T03:32:00.399Z,75
2023-03-11T03:33:07.420Z,76
2023-03-11T03:34:14.494Z,76
2023-03-11T03:35:22.260Z,77
2023-03-11T03:36:29.227Z,77
2023-03-11T03:37:36.289Z,78
2023-03-11T03:38:46.587Z,78
2023-03-11T03:39:56.434Z,78
2023-03-11T03:41:03.541Z,79
2023-03-11T03:42:10.796Z,80
2023-03-11T03:43:17.984Z,80
2023-03-11T03:44:25.022Z,81
2023-03-11T03:45:32.275Z,80
2023-03-11T03:46:40.369Z,80
2023-03-11T03:47:47.330Z,81
2023-03-11T03:48:54.673Z,82
2023-03-11T03:50:01.773Z,81
2023-03-11T03:51:08.910Z,82
2023-03-11T03:52:16.044Z,82
2023-03-11T03:53:23.653Z,82
2023-03-11T03:54:30.585Z,82
2023-03-11T03:55:37.522Z,82
2023-03-11T03:56:44.502Z,83
2023-03-11T03:57:51.550Z,83
2023-03-11T03:58:59.322Z,84
2023-03-11T04:00:06.472Z,84
2023-03-11T04:01:13.741Z,82
2023-03-11T04:02:21.442Z,84
2023-03-11T04:03:28.484Z,84
2023-03-11T04:04:35.350Z,84
2023-03-11T04:05:42.313Z,84
2023-03-11T04:06:49.315Z,85
2023-03-11T04:07:56.273Z,84
2023-03-11T04:09:03.875Z,84
2023-03-11T04:10:10.894Z,85
2023-03-11T04:11:17.889Z,85
2023-03-11T04:12:24.982Z,86
2023-03-11T04:13:32.045Z,85
2023-03-11T04:14:38.999Z,86
2023-03-11T04:15:45.905Z,85
2023-03-11T04:16:53.048Z,85
2023-03-11T04:18:00.002Z,85
2023-03-11T04:19:07.029Z,85
2023-03-11T04:20:14.808Z,85
2023-03-11T04:21:21.859Z,86
2023-03-11T04:22:28.849Z,85
2023-03-11T04:23:36.197Z,84
2023-03-11T04:24:43.771Z,84
2023-03-11T04:25:50.815Z,85
2023-03-11T04:26:57.790Z,83
2023-03-11T04:28:04.789Z,82
2023-03-11T04:29:11.760Z,83
2023-03-11T04:30:21.381Z,82
2023-03-11T04:31:29.286Z,82
2023-03-11T04:32:36.366Z,82
2023-03-11T04:33:43.417Z,82
2023-03-11T04:34:53.436Z,80
2023-03-11T04:36:01.400Z,79
2023-03-11T04:37:11.919Z,80
2023-03-11T04:38:18.877Z,80
2023-03-11T04:39:25.844Z,79
2023-03-11T04:40:32.830Z,80
2023-03-11T04:41:43.631Z,79
2023-03-11T04:42:53.586Z,79
2023-03-11T04:44:02.059Z,79
2023-03-11T04:45:09.080Z,80
2023-03-11T04:46:16.272Z,79
2023-03-11T04:47:23.159Z,79
2023-03-11T04:48:30.098Z,78
2023-03-11T04:49:37.026Z,79
2023-03-11T04:50:43.981Z,79
2023-03-11T04:51:51.083Z,79
2023-03-11T04:52:58.240Z,78
2023-03-11T04:54:05.173Z,79
2023-03-11T04:55:12.218Z,78
2023-03-11T04:56:19.177Z,78
2023-03-11T04:57:29.442Z,79
2023-03-11T04:58:36.419Z,79
2023-03-11T04:59:46.209Z,79
2023-03-11T05:00:53.234Z,78
2023-03-11T05:02:00.579Z,78
2023-03-11T05:03:08.474Z,78
2023-03-11T05:04:15.482Z,78
2023-03-11T05:05:22.367Z,77
2023-03-11T05:06:29.344Z,77
2023-03-11T05:07:36.407Z,77
2023-03-11T05:08:43.514Z,77
2023-03-11T05:09:50.453Z,77
2023-03-11T05:10:57.432Z,77
2023-03-11T05:12:07.758Z,78
2023-03-11T05:13:14.736Z,76
2023-03-11T05:14:24.341Z,78
2023-03-11T05:15:31.233Z,77
2023-03-11T05:16:38.991Z,77
2023-03-11T05:17:46.322Z,77
2023-03-11T05:18:56.186Z,77
2023-03-11T05:20:03.170Z,78
2023-03-11T05:21:10.348Z,78
2023-03-11T05:22:17.213Z,78
2023-03-11T05:23:24.728Z,78
2023-03-11T05:24:31.790Z,78
2023-03-11T05:25:38.816Z,78
2023-03-11T05:26:48.138Z,78
2023-03-11T05:27:52.745Z,78
2023-03-11T05:28:59.750Z,78
2023-03-11T05:30:10.521Z,79
2023-03-11T05:31:19.186Z,79
2023-03-11T05:32:26.234Z,79
2023-03-11T05:33:33.288Z,78
2023-03-11T05:34:40.208Z,79
2023-03-11T05:35:51.268Z,79
2023-03-11T05:36:58.198Z,79
2023-03-11T05:38:05.194Z,79
2023-03-11T05:39:12.154Z,80
2023-03-11T05:40:19.178Z,80
2023-03-11T05:41:26.154Z,80
2023-03-11T05:42:34.975Z,80
2023-03-11T05:43:41.892Z,80
2023-03-11T05:44:48.904Z,80
2023-03-11T05:45:55.899Z,80
2023-03-11T05:47:05.218Z,80
2023-03-11T05:48:12.136Z,79
2023-03-11T05:49:21.984Z,80
2023-03-11T05:50:31.521Z,80
2023-03-11T05:51:38.754Z,81
2023-03-11T05:52:45.843Z,81
2023-03-11T05:53:52.875Z,80
2023-03-11T05:54:59.890Z,81
2023-03-11T05:56:07.002Z,81
2023-03-11T05:57:14.394Z,82
2023-03-11T05:58:22.400Z,82
2023-03-11T05:59:34.765Z,82
2023-03-11T06:00:42.620Z,82
2023-03-11T06:01:49.645Z,82
2023-03-11T06:02:56.738Z,83
2023-03-11T06:04:06.769Z,83
2023-03-11T06:05:14.145Z,83
2023-03-11T06:06:23.535Z,82
2023-03-11T06:07:30.471Z,83
2023-03-11T06:08:37.446Z,83
2023-03-11T06:09:45.431Z,84
2023-03-11T06:10:55.072Z,84
2023-03-11T06:12:07.338Z,85
2023-03-11T06:13:15.453Z,84
2023-03-11T06:14:22.578Z,85
2023-03-11T06:15:29.526Z,84
2023-03-11T06:16:36.613Z,84
2023-03-11T06:17:43.455Z,84
2023-03-11T06:18:50.434Z,84
2023-03-11T06:19:57.576Z,84
2023-03-11T06:21:04.982Z,84
2023-03-11T06:22:15.980Z,84
2023-03-11T06:23:22.938Z,84
2023-03-11T06:24:30.174Z,85
2023-03-11T06:25:37.449Z,84
2023-03-11T06:26:44.544Z,85
2023-03-11T06:27:51.796Z,84
2023-03-11T06:28:58.877Z,84
2023-03-11T06:30:06.311Z,84
2023-03-11T06:31:16.922Z,85
2023-03-11T06:32:23.966Z,85
2023-03-11T06:33:31.162Z,85
2023-03-11T06:34:40.039Z,86
2023-03-11T06:35:47.573Z,85
2023-03-11T06:36:59.651Z,85
2023-03-11T06:38:06.744Z,86
2023-03-11T06:39:14.373Z,86
2023-03-11T06:40:21.456Z,86
2023-03-11T06:41:28.497Z,86
2023-03-11T06:42:38.475Z,86
2023-03-11T06:43:49.436Z,86
2023-03-11T06:44:58.491Z,86
2023-03-11T06:46:04.047Z,86
2023-03-11T06:47:09.858Z,86
2023-03-11T06:48:15.198Z,86
2023-03-11T06:49:20.332Z,86
2023-03-11T06:50:27.656Z,85
2023-03-11T06:51:35.871Z,85
2023-03-11T06:52:43.039Z,86
2023-03-11T06:53:52.553Z,85
2023-03-11T06:54:59.754Z,85
2023-03-11T06:56:07.208Z,85
2023-03-11T06:57:14.176Z,85
2023-03-11T06:58:21.162Z,85
2023-03-11T06:59:31.009Z,85
2023-03-11T07:00:38.262Z,85
2023-03-11T07:01:45.298Z,85
2023-03-11T07:02:52.265Z,85
2023-03-11T07:03:59.516Z,85
2023-03-11T07:05:07.365Z,85
2023-03-11T07:06:14.390Z,86
2023-03-11T07:07:21.485Z,85
2023-03-11T07:08:28.477Z,86
2023-03-11T07:09:36.496Z,86
2023-03-11T07:10:44.604Z,85
2023-03-11T07:11:52.188Z,86
2023-03-11T07:12:59.399Z,86
2023-03-11T07:14:06.384Z,86
2023-03-11T07:15:14.158Z,86
2023-03-11T07:16:20.973Z,86
2023-03-11T07:17:27.848Z,86
2023-03-11T07:18:37.501Z,86
2023-03-11T07:19:45.514Z,86
2023-03-11T07:20:52.820Z,86
2023-03-11T07:22:01.196Z,86
2023-03-11T07:23:08.816Z,86
2023-03-11T07:24:16.821Z,86
2023-03-11T07:25:26.936Z,86
2023-03-11T07:26:34.068Z,86
2023-03-11T07:27:42.080Z,86
2023-03-11T07:28:51.396Z,86
2023-03-11T07:29:58.791Z,86
2023-03-11T07:31:05.932Z,86
2023-03-11T07:32:15.715Z,86
2023-03-11T07:33:22.664Z,86
2023-03-11T07:34:30.477Z,86
2023-03-11T07:35:37.815Z,86
2023-03-11T07:36:44.760Z,86
2023-03-11T07:37:51.802Z,86
2023-03-11T07:38:58.828Z,86
2023-03-11T07:40:07.027Z,86
2023-03-11T07:41:14.339Z,86
2023-03-11T07:42:21.901Z,86
2023-03-11T07:43:28.449Z,86
2023-03-11T07:44:35.498Z,87
2023-03-11T07:45:45.663Z,86
2023-03-11T07:47:06.335Z,86
2023-03-11T07:48:24.454Z,86
2023-03-11T07:49:34.134Z,86
2023-03-11T07:50:41.274Z,86
2023-03-11T07:51:48.487Z,86
2023-03-11T07:52:56.170Z,86
2023-03-11T07:54:03.104Z,86
2023-03-11T07:55:11.067Z,86
2023-03-11T07:56:18.079Z,86
2023-03-11T07:57:26.012Z,86
2023-03-11T07:58:33.070Z,86
2023-03-11T07:59:41.310Z,86
2023-03-11T08:00:48.214Z,86
2023-03-11T08:01:56.067Z,86
2023-03-11T08:03:05.464Z,86
2023-03-11T08:04:14.259Z,86
2023-03-11T08:05:19.262Z,86
2023-03-11T08:06:26.145Z,86
2023-03-11T08:07:33.143Z,86
2023-03-11T08:08:41.232Z,86
2023-03-11T08:09:51.770Z,86
2023-03-11T08:10:58.650Z,87
2023-03-11T08:12:05.519Z,86
2023-03-11T08:13:12.643Z,86
2023-03-11T08:14:19.622Z,86
2023-03-11T08:15:27.365Z,86
2023-03-11T08:16:34.123Z,86
2023-03-11T08:17:40.987Z,87
2023-03-11T08:18:49.456Z,86
2023-03-11T08:19:56.348Z,86
2023-03-11T08:21:03.387Z,86
2023-03-11T08:22:13.108Z,86
2023-03-11T08:23:21.849Z,86
2023-03-11T08:24:31.832Z,87
2023-03-11T08:25:38.621Z,87
2023-03-11T08:26:46.665Z,87
2023-03-11T08:27:56.531Z,87
2023-03-11T08:29:03.461Z,86
2023-03-11T08:30:10.436Z,87
2023-03-11T08:31:17.775Z,87
2023-03-11T08:32:26.800Z,87
2023-03-11T08:33:33.660Z,87
2023-03-11T08:34:40.544Z,87
2023-03-11T08:35:47.422Z,87
2023-03-11T08:36:56.743Z,87
2023-03-11T08:38:05.951Z,88
2023-03-11T08:39:13.765Z,87
2023-03-11T08:40:20.579Z,87
2023-03-11T08:41:28.971Z,87
2023-03-11T08:42:37.165Z,87
2023-03-11T08:43:43.108Z,88
2023-03-11T08:44:50.123Z,87
2023-03-11T08:45:57.024Z,87
2023-03-11T08:47:05.196Z,87
2023-03-11T08:48:12.264Z,88
2023-03-11T08:49:22.877Z,87
2023-03-11T08:50:31.501Z,87
2023-03-11T08:51:37.753Z,88
2023-03-11T08:52:48.494Z,88
2023-03-11T08:53:55.469Z,87
2023-03-11T08:55:04.626Z,88
2023-03-11T08:56:12.338Z,87
2023-03-11T08:57:19.205Z,88
2023-03-11T08:58:26.393Z,88
2023-03-11T08:59:34.215Z,88
2023-03-11T09:00:43.639Z,88
2023-03-11T09:01:50.549Z,88
2023-03-11T09:02:57.498Z,88
2023-03-11T09:04:04.459Z,88
2023-03-11T09:05:11.429Z,88
2023-03-11T09:06:23.448Z,87
2023-03-11T09:07:30.381Z,88
2023-03-11T09:08:38.500Z,88
2023-03-11T09:09:45.549Z,88
2023-03-11T09:10:52.586Z,88
2023-03-11T09:12:00.037Z,88
2023-03-11T09:13:07.161Z,88
2023-03-11T09:14:14.120Z,88
2023-03-11T09:15:21.212Z,87
2023-03-11T09:16:30.182Z,87
2023-03-11T09:17:38.085Z,87
2023-03-11T09:18:45.058Z,87
2023-03-11T09:19:51.984Z,88
2023-03-11T09:20:58.930Z,88
2023-03-11T09:22:05.949Z,88
2023-03-11T09:23:12.938Z,88
2023-03-11T09:24:19.882Z,88
2023-03-11T09:25:26.759Z,88
2023-03-11T09:26:33.710Z,88
2023-03-11T09:27:40.694Z,88
2023-03-11T09:28:51.086Z,88
2023-03-11T09:29:58.174Z,88
2023-03-11T09:31:05.314Z,88
2023-03-11T09:32:12.573Z,88
2023-03-11T09:33:22.341Z,88
2023-03-11T09:34:29.355Z,89
2023-03-11T09:35:36.395Z,88
2023-03-11T09:36:43.310Z,88
2023-03-11T09:37:51.974Z,88
2023-03-11T09:38:59.031Z,88
2023-03-11T09:40:06.667Z,88
2023-03-11T09:41:23.220Z,88
2023-03-11T09:42:33.227Z,88
2023-03-11T09:43:50.901Z,88
2023-03-11T09:45:08.039Z,88
2023-03-11T09:46:20.346Z,88
2023-03-11T09:47:37.240Z,89
2023-03-11T09:48:51.308Z,89
2023-03-11T09:50:08.586Z,89
2023-03-11T09:51:23.535Z,89
2023-03-11T09:52:34.159Z,88
2023-03-11T09:53:46.593Z,89
2023-03-11T09:54:55.135Z,89
2023-03-11T09:56:02.077Z,88
2023-03-11T09:57:14.618Z,88
2023-03-11T09:58:26.575Z,88
2023-03-11T09:59:44.402Z,89
2023-03-11T10:00:51.443Z,88
2023-03-11T10:01:58.518Z,88
2023-03-11T10:03:05.525Z,88
2023-03-11T10:04:12.458Z,88
2023-03-11T10:05:24.966Z,89
2023-03-11T10:06:31.933Z,88
2023-03-11T10:07:39.069Z,88
2023-03-11T10:08:46.913Z,88
2023-03-11T10:09:54.147Z,88
2023-03-11T10:11:01.171Z,88
2023-03-11T10:12:18.406Z,89
2023-03-11T10:13:34.569Z,88
2023-03-11T10:14:49.120Z,88
2023-03-11T10:16:07.143Z,88
2023-03-11T10:17:22.429Z,88
2023-03-11T10:18:39.589Z,88
2023-03-11T10:19:49.919Z,88
2023-03-11T10:21:00.234Z,89
2023-03-11T10:22:17.116Z,89
2023-03-11T10:23:27.014Z,89
2023-03-11T10:24:44.168Z,88
2023-03-11T10:25:57.499Z,88
2023-03-11T10:27:14.798Z,89
2023-03-11T10:28:24.588Z,88
2023-03-11T10:29:36.807Z,88
2023-03-11T10:30:49.692Z,88
2023-03-11T10:31:59.673Z,88
2023-03-11T10:33:12.212Z,88
2023-03-11T10:34:29.230Z,88
2023-03-11T10:35:41.318Z,88
2023-03-11T10:36:48.234Z,88
2023-03-11T10:38:05.432Z,88
2023-03-11T10:39:22.748Z,88
2023-03-11T10:40:29.882Z,89
2023-03-11T10:41:39.969Z,88
2023-03-11T10:42:50.582Z,89
2023-03-11T10:43:57.627Z,89
2023-03-11T10:45:08.137Z,88
2023-03-11T10:46:18.210Z,88
2023-03-11T10:47:27.917Z,88
2023-03-11T10:48:35.156Z,88
2023-03-11T10:49:42.281Z,88
2023-03-11T10:50:49.555Z,88
2023-03-11T10:52:04.366Z,88
2023-03-11T10:53:11.745Z,88
2023-03-11T10:54:18.819Z,88
2023-03-11T10:55:32.585Z,88
2023-03-11T10:56:39.654Z,88
2023-03-11T10:57:47.534Z,88
2023-03-11T10:59:02.434Z,88
2023-03-11T11:00:25.795Z,88
2023-03-11T11:01:33.023Z,88
2023-03-11T11:02:42.732Z,88
2023-03-11T11:03:55.201Z,88
2023-03-11T11:05:02.199Z,88
2023-03-11T11:06:14.361Z,88
2023-03-11T11:07:31.204Z,88
2023-03-11T11:08:38.202Z,89
2023-03-11T11:09:45.907Z,88
2023-03-11T11:10:52.829Z,88
2023-03-11T11:12:06.529Z,89
2023-03-11T11:13:17.176Z,89
2023-03-11T11:14:23.998Z,88
2023-03-11T11:15:31.776Z,89
2023-03-11T11:16:41.506Z,89
2023-03-11T11:17:50.382Z,89
2023-03-11T11:18:57.432Z,88
2023-03-11T11:20:09.010Z,88
2023-03-11T11:21:21.774Z,89
2023-03-11T11:22:34.361Z,88
2023-03-11T11:23:41.361Z,89
2023-03-11T11:24:54.091Z,88
2023-03-11T11:26:02.033Z,89
2023-03-11T11:27:08.958Z,88
2023-03-11T11:28:20.942Z,89
2023-03-11T11:29:27.811Z,89
2023-03-11T11:30:34.791Z,89
2023-03-11T11:31:44.431Z,89
2023-03-11T11:32:51.404Z,89
2023-03-11T11:33:58.333Z,89
2023-03-11T11:35:05.145Z,88
2023-03-11T11:36:14.860Z,89
2023-03-11T11:37:21.769Z,89
2023-03-11T11:38:28.894Z,88
2023-03-11T11:39:35.977Z,89
2023-03-11T11:40:48.114Z,88
2023-03-11T11:41:56.703Z,88
2023-03-11T11:43:03.549Z,88
2023-03-11T11:44:10.936Z,88
2023-03-11T11:45:17.929Z,88
2023-03-11T11:46:33.042Z,88
2023-03-11T11:47:45.764Z,88
2023-03-11T11:48:53.667Z,88
2023-03-11T11:50:05.732Z,88
2023-03-11T11:51:21.818Z,88
2023-03-11T11:52:33.068Z,88
2023-03-11T11:53:45.155Z,88
2023-03-11T11:54:54.979Z,88
2023-03-11T11:56:07.107Z,88
2023-03-11T11:57:14.166Z,88
2023-03-11T11:58:21.199Z,88
2023-03-11T11:59:29.234Z,88
2023-03-11T12:00:37.134Z,88
2023-03-11T12:01:49.131Z,88
2023-03-11T12:03:04.227Z,88
2023-03-11T12:04:21.524Z,88
2023-03-11T12:05:38.672Z,88
2023-03-11T12:06:54.686Z,88
2023-03-11T12:08:11.971Z,88
2023-03-11T12:09:24.150Z,88
2023-03-11T12:10:34.796Z,88
2023-03-11T12:11:52.596Z,87
2023-03-11T12:13:04.691Z,88
2023-03-11T12:14:18.448Z,87
2023-03-11T12:15:25.881Z,87
2023-03-11T12:16:32.933Z,87
2023-03-11T12:17:48.748Z,87
2023-03-11T12:18:55.690Z,87
2023-03-11T12:20:05.463Z,87
2023-03-11T12:21:13.876Z,87
2023-03-11T12:22:29.095Z,87
2023-03-11T12:23:42.616Z,87
2023-03-11T12:24:52.595Z,87
2023-03-11T12:26:07.338Z,87
2023-03-11T12:27:17.336Z,87
2023-03-11T12:28:24.907Z,88
2023-03-11T12:29:37.428Z,88
2023-03-11T12:30:44.477Z,87
2023-03-11T12:31:54.629Z,88
2023-03-11T12:33:01.668Z,87
2023-03-11T12:34:14.678Z,87
2023-03-11T12:35:21.844Z,87
2023-03-11T12:36:34.038Z,87
2023-03-11T12:37:41.454Z,87
2023-03-11T12:38:48.427Z,87
2023-03-11T12:39:55.410Z,87
2023-03-11T12:41:02.365Z,87
2023-03-11T12:42:15.098Z,87
2023-03-11T12:43:24.894Z,87
2023-03-11T12:44:34.431Z,86
2023-03-11T12:45:41.486Z,86
2023-03-11T12:46:56.724Z,87
2023-03-11T12:48:09.561Z,87
2023-03-11T12:49:26.681Z,87
2023-03-11T12:50:36.712Z,86
2023-03-11T12:51:43.835Z,87
2023-03-11T12:53:00.865Z,87
2023-03-11T12:54:11.167Z,87
2023-03-11T12:55:23.113Z,87
2023-03-11T12:56:33.015Z,87
2023-03-11T12:57:40.317Z,87
2023-03-11T12:58:50.030Z,87
2023-03-11T13:00:07.895Z,87
2023-03-11T13:01:25.745Z,87
2023-03-11T13:02:48.287Z,86
2023-03-11T13:04:02.654Z,87
2023-03-11T13:05:17.301Z,87
2023-03-11T13:06:35.381Z,87
2023-03-11T13:07:46.164Z,87
2023-03-11T13:08:59.793Z,87
2023-03-11T13:10:08.549Z,87
2023-03-11T13:11:15.529Z,87
2023-03-11T13:12:32.586Z,87
2023-03-11T13:13:47.633Z,87
2023-03-11T13:14:54.615Z,87
2023-03-11T13:16:14.478Z,87
2023-03-11T13:17:21.401Z,87
2023-03-11T13:18:31.559Z,87
2023-03-11T13:19:38.569Z,88
2023-03-11T13:20:50.740Z,87
2023-03-11T13:21:57.760Z,87
2023-03-11T13:23:04.678Z,88
2023-03-11T13:24:21.724Z,88
2023-03-11T13:25:32.565Z,88
2023-03-11T13:26:45.552Z,88
2023-03-11T13:27:55.405Z,88
2023-03-11T13:29:08.069Z,88
2023-03-11T13:30:23.163Z,88
2023-03-11T13:31:30.277Z,88
2023-03-11T13:32:42.238Z,88
2023-03-11T13:33:59.709Z,88
2023-03-11T13:35:14.847Z,88
2023-03-11T13:36:32.250Z,88
2023-03-11T13:37:48.447Z,87
2023-03-11T13:39:04.558Z,88
2023-03-11T13:40:16.550Z,88
2023-03-11T13:41:29.430Z,87
2023-03-11T13:42:37.842Z,87
2023-03-11T13:43:50.656Z,87
2023-03-11T13:44:58.150Z,87
2023-03-11T13:46:05.222Z,87
2023-03-11T13:47:15.286Z,87
2023-03-11T13:48:22.272Z,87
2023-03-11T13:49:32.823Z,87
2023-03-11T13:50:50.054Z,87
2023-03-11T13:51:57.052Z,87
2023-03-11T13:53:08.631Z,87
2023-03-11T13:54:19.587Z,87
2023-03-11T13:55:34.584Z,88
2023-03-11T13:56:44.521Z,87
2023-03-11T13:57:56.666Z,87
2023-03-11T13:59:03.657Z,87
2023-03-11T14:00:20.581Z,87
2023-03-11T14:01:27.645Z,87
2023-03-11T14:02:34.531Z,86
2023-03-11T14:03:41.411Z,87
2023-03-11T14:04:48.202Z,87
2023-03-11T14:05:55.050Z,87
2023-03-11T14:07:01.963Z,86
2023-03-11T14:08:16.494Z,87
2023-03-11T14:09:28.373Z,86
2023-03-11T14:10:35.615Z,86
2023-03-11T14:11:42.574Z,86
2023-03-11T14:12:49.551Z,86
2023-03-11T14:14:01.403Z,86
2023-03-11T14:15:09.245Z,86
2023-03-11T14:16:20.333Z,86
2023-03-11T14:17:30.307Z,86
2023-03-11T14:18:37.328Z,86
2023-03-11T14:19:44.673Z,86
2023-03-11T14:21:01.758Z,86
2023-03-11T14:22:08.763Z,86
2023-03-11T14:23:15.763Z,86
2023-03-11T14:24:23.086Z,86
2023-03-11T14:25:30.446Z,86
2023-03-11T14:26:37.438Z,86
2023-03-11T14:27:44.474Z,86
2023-03-11T14:28:56.534Z,86
2023-03-11T14:30:10.405Z,86
2023-03-11T14:31:23.700Z,85
2023-03-11T14:32:38.158Z,85
2023-03-11T14:33:45.052Z,85
2023-03-11T14:34:58.544Z,85
2023-03-11T14:36:07.280Z,85
2023-03-11T14:37:14.503Z,85
2023-03-11T14:38:29.635Z,84
2023-03-11T14:39:36.620Z,85
2023-03-11T14:40:44.475Z,85
2023-03-11T14:41:52.598Z,84
2023-03-11T14:43:04.677Z,84
2023-03-11T14:44:11.573Z,84
2023-03-11T14:45:18.697Z,84
2023-03-11T14:46:26.259Z,84
2023-03-11T14:47:35.330Z,84
2023-03-11T14:48:45.259Z,84
2023-03-11T14:49:52.305Z,84
2023-03-11T14:51:02.332Z,84
2023-03-11T14:52:11.618Z,84
2023-03-11T14:53:29.718Z,84
2023-03-11T14:54:42.015Z,84
2023-03-11T14:55:52.418Z,84
2023-03-11T14:57:04.459Z,84
2023-03-11T14:58:13.781Z,85
2023-03-11T14:59:26.548Z,84
2023-03-11T15:00:33.676Z,85
2023-03-11T15:01:42.076Z,85
2023-03-11T15:02:49.108Z,85
2023-03-11T15:04:02.226Z,85
2023-03-11T15:05:10.837Z,85
2023-03-11T15:06:20.772Z,86
2023-03-11T15:07:34.275Z,85
2023-03-11T15:08:41.220Z,86
2023-03-11T15:09:51.133Z,86
2023-03-11T15:10:58.112Z,86
2023-03-11T15:12:05.674Z,86
2023-03-11T15:13:15.772Z,86
2023-03-11T15:14:23.793Z,86
2023-03-11T15:15:34.315Z,86
2023-03-11T15:16:42.328Z,87
2023-03-11T15:17:49.944Z,87
2023-03-11T15:18:58.983Z,87
2023-03-11T15:20:16.667Z,87
2023-03-11T15:21:27.038Z,87
2023-03-11T15:22:36.133Z,87
2023-03-11T15:23:48.695Z,87
2023-03-11T15:25:06.295Z,87
2023-03-11T15:26:20.236Z,87
2023-03-11T15:27:31.775Z,87
2023-03-11T15:28:39.799Z,87
2023-03-11T15:29:47.194Z,87
2023-03-11T15:30:56.693Z,87
2023-03-11T15:32:15.460Z,87
2023-03-11T15:33:32.911Z,86
2023-03-11T15:34:39.936Z,87
2023-03-11T15:35:47.007Z,87
2023-03-11T15:36:54.821Z,87
2023-03-11T15:38:10.833Z,87
2023-03-11T15:39:22.896Z,86
2023-03-11T15:40:44.797Z,87
2023-03-11T15:41:42.909Z,86
2023-03-11T15:42:50.712Z,87
2023-03-11T15:44:08.729Z,86
2023-03-11T15:45:24.591Z,86
2023-03-11T15:46:31.879Z,86
2023-03-11T15:47:38.963Z,86
2023-03-11T15:48:46.317Z,86
2023-03-11T15:49:56.889Z,86
2023-03-11T15:51:04.841Z,86
2023-03-11T15:52:16.641Z,86
2023-03-11T15:53:24.885Z,85
2023-03-11T15:54:32.180Z,84
2023-03-11T15:55:41.719Z,85
2023-03-11T15:56:50.612Z,84
2023-03-11T15:57:59.306Z,84
2023-03-11T15:59:07.486Z,84
2023-03-11T16:00:18.049Z,84
2023-03-11T16:01:25.706Z,84
2023-03-11T16:02:32.840Z,83
2023-03-11T16:03:40.307Z,83
2023-03-11T16:04:47.647Z,83
2023-03-11T16:05:54.858Z,83
2023-03-11T16:07:08.113Z,83
2023-03-11T16:08:11.743Z,83
2023-03-11T16:09:20.599Z,83
2023-03-11T16:10:27.964Z,83
2023-03-11T16:11:37.161Z,84
2023-03-11T16:12:44.313Z,84
2023-03-11T16:13:51.615Z,84
2023-03-11T16:14:59.239Z,85
2023-03-11T16:16:09.359Z,85
2023-03-11T16:17:22.212Z,86
2023-03-11T16:18:29.731Z,86
2023-03-11T16:19:37.174Z,86
2023-03-11T16:20:47.154Z,86
2023-03-11T16:21:54.842Z,86
2023-03-11T16:23:01.963Z,86